createdAt,value
2017-02-13T00:00:40.374Z,1021.26
2017-02-13T00:01:40.350Z,1021.3
2017-02-13T00:02:40.326Z,1021.29
2017-02-13T00:03:40.303Z,1021.24
2017-02-13T00:04:40.280Z,1021.3
2017-02-13T00:05:40.255Z,1021.35
2017-02-13T00:06:40.232Z,1021.29
2017-02-13T00:07:40.211Z,1021.34
2017-02-13T00:08:40.186Z,1021.33
2017-02-13T00:09:40.162Z,1021.34
2017-02-13T00:10:40.136Z,1021.32
2017-02-13T00:11:40.114Z,1021.35
2017-02-13T00:12:40.092Z,1021.34
2017-02-13T00:13:40.068Z,1021.35
2017-02-13T00:14:40.045Z,1021.35
2017-02-13T00:15:40.020Z,1021.36
2017-02-13T00:16:39.997Z,1021.38
2017-02-13T00:17:39.973Z,1021.37
2017-02-13T00:18:39.952Z,1021.41
2017-02-13T00:19:39.929Z,1021.41
2017-02-13T00:20:39.906Z,1021.42
2017-02-13T00:21:39.880Z,1021.46
2017-02-13T00:22:39.861Z,1021.43
2017-02-13T00:23:39.834Z,1021.4
2017-02-13T00:24:39.808Z,1021.37
2017-02-13T00:25:39.988Z,1021.4
2017-02-13T00:26:39.767Z,1021.37
2017-02-13T00:27:39.745Z,1021.39
2017-02-13T00:28:39.715Z,1021.39
2017-02-13T00:29:39.695Z,1021.36
2017-02-13T00:30:39.670Z,1021.41
2017-02-13T00:31:39.645Z,1021.34
2017-02-13T00:32:39.622Z,1021.4
2017-02-13T00:33:39.598Z,1021.38
2017-02-13T00:34:39.574Z,1021.43
2017-02-13T00:35:39.553Z,1021.46
2017-02-13T00:36:39.527Z,1021.47
2017-02-13T00:37:39.505Z,1021.44
2017-02-13T00:38:39.481Z,1021.49
2017-02-13T00:39:39.458Z,1021.47
2017-02-13T00:40:39.432Z,1021.48
2017-02-13T00:41:39.410Z,1021.45
2017-02-13T00:42:39.387Z,1021.46
2017-02-13T00:43:39.363Z,1021.48
2017-02-13T00:44:39.341Z,1021.53
2017-02-13T00:45:39.317Z,1021.49
2017-02-13T00:46:39.295Z,1021.51
2017-02-13T00:47:39.270Z,1021.51
2017-02-13T00:48:39.245Z,1021.55
2017-02-13T00:49:39.220Z,1021.51
2017-02-13T00:50:39.199Z,1021.47
2017-02-13T00:51:39.174Z,1021.53
2017-02-13T00:52:39.152Z,1021.51
2017-02-13T00:53:39.127Z,1021.51
2017-02-13T00:54:39.105Z,1021.52
2017-02-13T00:55:39.081Z,1021.51
2017-02-13T00:56:39.058Z,1021.51
2017-02-13T00:57:39.033Z,1021.54
2017-02-13T00:58:39.010Z,1021.51
2017-02-13T00:59:38.986Z,1021.53
2017-02-13T01:00:38.962Z,1021.52
2017-02-13T01:01:38.941Z,1021.5
2017-02-13T01:02:38.916Z,1021.52
2017-02-13T01:03:38.891Z,1021.58
2017-02-13T01:04:38.869Z,1021.53
2017-02-13T01:05:38.844Z,1021.58
2017-02-13T01:06:38.821Z,1021.56
2017-02-13T01:07:38.801Z,1021.57
2017-02-13T01:08:38.774Z,1021.54
2017-02-13T01:09:38.751Z,1021.56
2017-02-13T01:10:38.728Z,1021.58
2017-02-13T01:11:38.702Z,1021.55
2017-02-13T01:12:38.680Z,1021.56
2017-02-13T01:13:38.659Z,1021.55
2017-02-13T01:14:38.633Z,1021.54
2017-02-13T01:15:38.607Z,1021.55
2017-02-13T01:16:38.585Z,1021.53
2017-02-13T01:17:38.561Z,1021.54
2017-02-13T01:18:38.561Z,1021.53
2017-02-13T01:19:38.514Z,1021.56
2017-02-13T01:20:38.489Z,1021.58
2017-02-13T01:21:38.466Z,1021.57
2017-02-13T01:22:38.441Z,1021.62
2017-02-13T01:23:38.419Z,1021.63
2017-02-13T01:24:38.395Z,1021.6
2017-02-13T01:25:38.371Z,1021.64
2017-02-13T01:26:38.347Z,1021.63
2017-02-13T01:27:38.346Z,1021.66
2017-02-13T01:28:38.300Z,1021.65
2017-02-13T01:29:38.278Z,1021.68
2017-02-13T01:30:38.252Z,1021.64
2017-02-13T01:31:38.232Z,1021.69
2017-02-13T01:32:38.208Z,1021.65
2017-02-13T01:33:38.183Z,1021.6
2017-02-13T01:34:38.159Z,1021.64
2017-02-13T01:35:38.134Z,1021.59
2017-02-13T01:36:38.112Z,1021.61
2017-02-13T01:37:38.087Z,1021.55
2017-02-13T01:38:38.063Z,1021.6
2017-02-13T01:39:38.040Z,1021.57
2017-02-13T01:40:38.015Z,1021.59
2017-02-13T01:41:37.994Z,1021.54
2017-02-13T01:42:37.969Z,1021.56
2017-02-13T01:43:37.946Z,1021.56
2017-02-13T01:44:37.922Z,1021.59
2017-02-13T01:45:37.899Z,1021.59
2017-02-13T01:46:37.874Z,1021.55
2017-02-13T01:47:37.850Z,1021.56
2017-02-13T01:48:37.829Z,1021.57
2017-02-13T01:49:37.805Z,1021.54
2017-02-13T01:50:37.780Z,1021.52
2017-02-13T01:51:37.755Z,1021.51
2017-02-13T01:52:37.732Z,1021.52
2017-02-13T01:53:37.706Z,1021.5
2017-02-13T01:54:37.688Z,1021.55
2017-02-13T01:55:37.659Z,1021.56
2017-02-13T01:56:37.637Z,1021.55
2017-02-13T01:57:37.614Z,1021.54
2017-02-13T01:58:37.589Z,1021.56
2017-02-13T01:59:37.566Z,1021.53
2017-02-13T02:00:37.544Z,1021.54
2017-02-13T02:01:37.520Z,1021.51
2017-02-13T02:02:37.496Z,1021.5
2017-02-13T02:03:37.471Z,1021.53
2017-02-13T02:04:37.450Z,1021.5
2017-02-13T02:05:37.425Z,1021.53
2017-02-13T02:06:37.401Z,1021.5
2017-02-13T02:07:37.378Z,1021.52
2017-02-13T02:08:37.353Z,1021.53
2017-02-13T02:09:37.333Z,1021.53
2017-02-13T02:10:37.308Z,1021.55
2017-02-13T02:11:37.284Z,1021.51
2017-02-13T02:12:37.258Z,1021.51
2017-02-13T02:13:37.234Z,1021.51
2017-02-13T02:14:37.212Z,1021.48
2017-02-13T02:15:37.188Z,1021.51
2017-02-13T02:16:37.165Z,1021.5
2017-02-13T02:17:37.140Z,1021.49
2017-02-13T02:18:37.116Z,1021.55
2017-02-13T02:19:37.095Z,1021.55
2017-02-13T02:20:37.071Z,1021.55
2017-02-13T02:21:37.046Z,1021.51
2017-02-13T02:22:37.022Z,1021.53
2017-02-13T02:23:37.000Z,1021.54
2017-02-13T02:24:36.975Z,1021.53
2017-02-13T02:25:37.153Z,1021.54
2017-02-13T02:26:36.928Z,1021.57
2017-02-13T02:27:36.903Z,1021.53
2017-02-13T02:28:36.880Z,1021.51
2017-02-13T02:29:36.856Z,1021.52
2017-02-13T02:30:36.832Z,1021.57
2017-02-13T02:31:36.808Z,1021.6
2017-02-13T02:32:36.786Z,1021.59
2017-02-13T02:33:36.765Z,1021.62
2017-02-13T02:34:36.740Z,1021.63
2017-02-13T02:35:36.714Z,1021.61
2017-02-13T02:36:36.690Z,1021.62
2017-02-13T02:37:36.665Z,1021.64
2017-02-13T02:38:36.642Z,1021.63
2017-02-13T02:39:36.619Z,1021.63
2017-02-13T02:40:36.597Z,1021.62
2017-02-13T02:41:36.574Z,1021.61
2017-02-13T02:42:36.547Z,1021.64
2017-02-13T02:43:36.526Z,1021.64
2017-02-13T02:44:36.502Z,1021.63
2017-02-13T02:45:36.477Z,1021.69
2017-02-13T02:46:36.451Z,1021.65
2017-02-13T02:47:36.428Z,1021.65
2017-02-13T02:48:36.406Z,1021.66
2017-02-13T02:49:36.381Z,1021.64
2017-02-13T02:50:36.357Z,1021.64
2017-02-13T02:51:36.333Z,1021.64
2017-02-13T02:52:36.311Z,1021.63
2017-02-13T02:53:36.286Z,1021.58
2017-02-13T02:54:36.263Z,1021.54
2017-02-13T02:55:36.237Z,1021.55
2017-02-13T02:56:36.216Z,1021.55
2017-02-13T02:57:36.191Z,1021.53
2017-02-13T02:58:36.168Z,1021.5
2017-02-13T02:59:36.143Z,1021.53
2017-02-13T03:00:36.119Z,1021.5
2017-02-13T03:01:36.097Z,1021.45
2017-02-13T03:02:36.073Z,1021.45
2017-02-13T03:03:36.049Z,1021.48
2017-02-13T03:04:36.023Z,1021.41
2017-02-13T03:05:36.001Z,1021.43
2017-02-13T03:06:35.977Z,1021.39
2017-02-13T03:07:35.955Z,1021.4
2017-02-13T03:08:35.931Z,1021.41
2017-02-13T03:09:35.908Z,1021.38
2017-02-13T03:10:35.882Z,1021.41
2017-02-13T03:11:35.857Z,1021.39
2017-02-13T03:12:35.834Z,1021.38
2017-02-13T03:13:35.812Z,1021.36
2017-02-13T03:14:35.789Z,1021.36
2017-02-13T03:15:35.765Z,1021.41
2017-02-13T03:16:35.737Z,1021.36
2017-02-13T03:17:35.719Z,1021.39
2017-02-13T03:18:35.690Z,1021.39
2017-02-13T03:19:35.668Z,1021.38
2017-02-13T03:20:35.644Z,1021.42
2017-02-13T03:21:35.621Z,1021.44
2017-02-13T03:22:35.594Z,1021.45
2017-02-13T03:23:35.572Z,1021.48
2017-02-13T03:24:35.548Z,1021.49
2017-02-13T03:25:35.525Z,1021.53
2017-02-13T03:26:35.501Z,1021.59
2017-02-13T03:27:35.476Z,1021.58
2017-02-13T03:28:35.454Z,1021.59
2017-02-13T03:29:35.433Z,1021.58
2017-02-13T03:30:35.406Z,1021.63
2017-02-13T03:31:35.383Z,1021.56
2017-02-13T03:32:35.360Z,1021.57
2017-02-13T03:33:35.334Z,1021.54
2017-02-13T03:34:35.309Z,1021.56
2017-02-13T03:35:35.289Z,1021.51
2017-02-13T03:36:35.264Z,1021.5
2017-02-13T03:37:35.239Z,1021.5
2017-02-13T03:38:35.216Z,1021.5
2017-02-13T03:39:35.193Z,1021.49
2017-02-13T03:40:35.168Z,1021.52
2017-02-13T03:41:35.142Z,1021.49
2017-02-13T03:42:35.120Z,1021.46
2017-02-13T03:43:35.103Z,1021.45
2017-02-13T03:44:35.072Z,1021.46
2017-02-13T03:45:35.047Z,1021.43
2017-02-13T03:46:35.025Z,1021.45
2017-02-13T03:47:35.000Z,1021.47
2017-02-13T03:48:34.977Z,1021.54
2017-02-13T03:49:34.953Z,1021.52
2017-02-13T03:50:34.929Z,1021.54
2017-02-13T03:51:34.906Z,1021.53
2017-02-13T03:52:34.884Z,1021.48
2017-02-13T03:53:34.859Z,1021.5
2017-02-13T03:54:34.834Z,1021.49
2017-02-13T03:55:34.811Z,1021.5
2017-02-13T03:56:34.785Z,1021.5
2017-02-13T03:57:34.762Z,1021.54
2017-02-13T03:58:34.741Z,1021.52
2017-02-13T03:59:34.717Z,1021.58
2017-02-13T04:00:34.690Z,1021.55
2017-02-13T04:01:34.667Z,1021.54
2017-02-13T04:02:34.644Z,1021.56
2017-02-13T04:03:34.620Z,1021.6
2017-02-13T04:04:34.599Z,1021.64
2017-02-13T04:05:34.573Z,1021.63
2017-02-13T04:06:34.549Z,1021.63
2017-02-13T04:07:34.526Z,1021.6
2017-02-13T04:08:34.510Z,1021.61
2017-02-13T04:09:34.477Z,1021.68
2017-02-13T04:10:34.453Z,1021.71
2017-02-13T04:11:34.428Z,1021.72
2017-02-13T04:12:34.406Z,1021.73
2017-02-13T04:13:34.382Z,1021.79
2017-02-13T04:14:34.357Z,1021.83
2017-02-13T04:15:34.334Z,1021.83
2017-02-13T04:16:34.312Z,1021.89
2017-02-13T04:17:34.291Z,1021.91
2017-02-13T04:18:34.264Z,1021.91
2017-02-13T04:19:34.237Z,1021.92
2017-02-13T04:20:34.215Z,1021.94
2017-02-13T04:21:34.191Z,1021.95
2017-02-13T04:22:34.169Z,1021.96
2017-02-13T04:23:34.144Z,1021.95
2017-02-13T04:24:34.119Z,1021.97
2017-02-13T04:25:34.298Z,1021.94
2017-02-13T04:26:34.072Z,1021.97
2017-02-13T04:27:34.047Z,1021.93
2017-02-13T04:28:34.023Z,1021.94
2017-02-13T04:29:33.999Z,1021.91
2017-02-13T04:30:33.975Z,1021.93
2017-02-13T04:31:33.953Z,1021.9
2017-02-13T04:32:33.928Z,1021.84
2017-02-13T04:33:33.903Z,1021.86
2017-02-13T04:34:33.881Z,1021.8
2017-02-13T04:35:33.857Z,1021.74
2017-02-13T04:36:33.836Z,1021.7
2017-02-13T04:37:33.808Z,1021.71
2017-02-13T04:38:33.787Z,1021.65
2017-02-13T04:39:33.763Z,1021.69
2017-02-13T04:40:33.739Z,1021.66
2017-02-13T04:41:33.715Z,1021.66
2017-02-13T04:42:33.688Z,1021.67
2017-02-13T04:43:33.666Z,1021.69
2017-02-13T04:44:33.640Z,1021.76
2017-02-13T04:45:33.618Z,1021.8
2017-02-13T04:46:33.595Z,1021.81
2017-02-13T04:47:33.569Z,1021.83
2017-02-13T04:48:33.550Z,1021.92
2017-02-13T04:49:33.523Z,1021.88
2017-02-13T04:50:33.499Z,1021.87
2017-02-13T04:51:33.474Z,1021.88
2017-02-13T04:52:33.452Z,1021.86
2017-02-13T04:53:33.426Z,1021.87
2017-02-13T04:54:33.403Z,1021.9
2017-02-13T04:55:33.379Z,1021.89
2017-02-13T04:56:33.354Z,1021.91
2017-02-13T04:57:33.332Z,1021.87
2017-02-13T04:58:33.309Z,1021.85
2017-02-13T04:59:33.283Z,1021.8
2017-02-13T05:00:33.260Z,1021.76
2017-02-13T05:01:33.238Z,1021.66
2017-02-13T05:02:33.216Z,1021.63
2017-02-13T05:03:33.188Z,1021.58
2017-02-13T05:04:33.163Z,1021.59
2017-02-13T05:05:33.138Z,1021.52
2017-02-13T05:06:33.118Z,1021.56
2017-02-13T05:07:33.093Z,1021.62
2017-02-13T05:08:33.068Z,1021.59
2017-02-13T05:09:33.044Z,1021.65
2017-02-13T05:10:33.023Z,1021.65
2017-02-13T05:11:32.996Z,1021.67
2017-02-13T05:12:32.972Z,1021.68
2017-02-13T05:13:32.947Z,1021.67
2017-02-13T05:14:32.925Z,1021.63
2017-02-13T05:15:32.900Z,1021.64
2017-02-13T05:16:32.877Z,1021.63
2017-02-13T05:17:32.852Z,1021.62
2017-02-13T05:18:32.830Z,1021.64
2017-02-13T05:19:32.804Z,1021.62
2017-02-13T05:20:32.780Z,1021.6
2017-02-13T05:21:32.757Z,1021.55
2017-02-13T05:22:32.734Z,1021.5
2017-02-13T05:23:32.711Z,1021.46
2017-02-13T05:24:32.685Z,1021.46
2017-02-13T05:25:32.661Z,1021.42
2017-02-13T05:26:32.642Z,1021.45
2017-02-13T05:27:32.614Z,1021.39
2017-02-13T05:28:32.591Z,1021.39
2017-02-13T05:29:32.566Z,1021.42
2017-02-13T05:30:32.543Z,1021.41
2017-02-13T05:31:32.522Z,1021.46
2017-02-13T05:32:32.497Z,1021.37
2017-02-13T05:33:32.470Z,1021.47
2017-02-13T05:34:32.453Z,1021.46
2017-02-13T05:35:32.425Z,1021.45
2017-02-13T05:36:32.401Z,1021.5
2017-02-13T05:37:32.377Z,1021.55
2017-02-13T05:38:32.353Z,1021.57
2017-02-13T05:39:32.328Z,1021.54
2017-02-13T05:40:32.307Z,1021.59
2017-02-13T05:41:32.279Z,1021.54
2017-02-13T05:42:32.258Z,1021.56
2017-02-13T05:43:32.234Z,1021.49
2017-02-13T05:44:32.209Z,1021.5
2017-02-13T05:45:32.185Z,1021.49
2017-02-13T05:46:32.161Z,1021.46
2017-02-13T05:47:32.137Z,1021.46
2017-02-13T05:48:32.121Z,1021.48
2017-02-13T05:49:32.089Z,1021.43
2017-02-13T05:50:32.067Z,1021.47
2017-02-13T05:51:32.043Z,1021.44
2017-02-13T05:52:32.021Z,1021.42
2017-02-13T05:53:31.995Z,1021.45
2017-02-13T05:54:31.970Z,1021.42
2017-02-13T05:55:31.947Z,1021.43
2017-02-13T05:56:31.925Z,1021.39
2017-02-13T05:57:31.902Z,1021.4
2017-02-13T05:58:31.891Z,1021.37
2017-02-13T05:59:31.851Z,1021.37
2017-02-13T06:00:31.827Z,1021.32
2017-02-13T06:01:31.803Z,1021.36
2017-02-13T06:02:31.783Z,1021.38
2017-02-13T06:03:31.757Z,1021.35
2017-02-13T06:04:31.734Z,1021.36
2017-02-13T06:05:31.707Z,1021.38
2017-02-13T06:06:31.685Z,1021.4
2017-02-13T06:07:31.664Z,1021.42
2017-02-13T06:08:31.643Z,1021.38
2017-02-13T06:09:31.613Z,1021.37
2017-02-13T06:10:31.591Z,1021.42
2017-02-13T06:11:31.566Z,1021.43
2017-02-13T06:12:31.542Z,1021.49
2017-02-13T06:13:31.518Z,1021.51
2017-02-13T06:14:31.496Z,1021.51
2017-02-13T06:15:31.470Z,1021.51
2017-02-13T06:16:31.445Z,1021.49
2017-02-13T06:17:31.424Z,1021.46
2017-02-13T06:18:31.397Z,1021.48
2017-02-13T06:19:31.374Z,1021.5
2017-02-13T06:20:31.351Z,1021.54
2017-02-13T06:21:31.327Z,1021.51
2017-02-13T06:22:31.302Z,1021.51
2017-02-13T06:23:31.278Z,1021.51
2017-02-13T06:24:31.256Z,1021.5
2017-02-13T06:25:31.433Z,1021.48
2017-02-13T06:26:32.045Z,1021.51
2017-02-13T06:27:31.185Z,1021.53
2017-02-13T06:28:31.163Z,1021.56
2017-02-13T06:29:31.135Z,1021.5
2017-02-13T06:30:31.114Z,1021.58
2017-02-13T06:31:31.087Z,1021.57
2017-02-13T06:32:31.065Z,1021.58
2017-02-13T06:33:31.046Z,1021.6
2017-02-13T06:34:31.016Z,1021.6
2017-02-13T06:35:30.991Z,1021.57
2017-02-13T06:36:30.970Z,1021.58
2017-02-13T06:37:30.944Z,1021.6
2017-02-13T06:38:30.922Z,1021.62
2017-02-13T06:39:30.899Z,1021.61
2017-02-13T06:40:30.871Z,1021.59
2017-02-13T06:41:30.847Z,1021.58
2017-02-13T06:42:30.826Z,1021.54
2017-02-13T06:43:30.807Z,1021.57
2017-02-13T06:44:30.777Z,1021.56
2017-02-13T06:45:30.754Z,1021.53
2017-02-13T06:46:30.729Z,1021.58
2017-02-13T06:47:30.707Z,1021.62
2017-02-13T06:48:30.681Z,1021.62
2017-02-13T06:49:30.659Z,1021.62
2017-02-13T06:50:30.636Z,1021.66
2017-02-13T06:51:30.612Z,1021.66
2017-02-13T06:52:30.588Z,1021.65
2017-02-13T06:53:30.564Z,1021.64
2017-02-13T06:54:30.539Z,1021.58
2017-02-13T06:55:30.518Z,1021.5
2017-02-13T06:56:30.492Z,1021.57
2017-02-13T06:57:30.486Z,1021.57
2017-02-13T06:58:30.452Z,1021.57
2017-02-13T06:59:30.429Z,1021.55
2017-02-13T07:00:30.397Z,1021.56
2017-02-13T07:01:30.375Z,1021.64
2017-02-13T07:02:30.351Z,1021.61
2017-02-13T07:03:30.326Z,1021.64
2017-02-13T07:04:30.304Z,1021.61
2017-02-13T07:05:30.279Z,1021.67
2017-02-13T07:06:30.256Z,1021.68
2017-02-13T07:07:30.231Z,1021.69
2017-02-13T07:08:30.211Z,1021.69
2017-02-13T07:09:30.185Z,1021.71
2017-02-13T07:10:30.162Z,1021.73
2017-02-13T07:11:30.139Z,1021.74
2017-02-13T07:12:30.114Z,1021.75
2017-02-13T07:13:30.092Z,1021.76
2017-02-13T07:14:30.068Z,1021.75
2017-02-13T07:15:30.044Z,1021.76
2017-02-13T07:16:30.020Z,1021.75
2017-02-13T07:17:29.997Z,1021.74
2017-02-13T07:18:29.974Z,1021.78
2017-02-13T07:19:29.949Z,1021.77
2017-02-13T07:20:29.927Z,1021.76
2017-02-13T07:21:29.902Z,1021.77
2017-02-13T07:22:29.881Z,1021.73
2017-02-13T07:23:29.855Z,1021.72
2017-02-13T07:24:29.829Z,1021.75
2017-02-13T07:25:29.808Z,1021.75
2017-02-13T07:26:29.785Z,1021.69
2017-02-13T07:27:29.760Z,1021.75
2017-02-13T07:28:29.740Z,1021.73
2017-02-13T07:29:29.715Z,1021.68
2017-02-13T07:30:29.690Z,1021.69
2017-02-13T07:31:29.669Z,1021.75
2017-02-13T07:32:29.644Z,1021.71
2017-02-13T07:33:29.620Z,1021.71
2017-02-13T07:34:29.597Z,1021.69
2017-02-13T07:35:29.575Z,1021.57
2017-02-13T07:36:29.551Z,1021.64
2017-02-13T07:37:29.530Z,1021.57
2017-02-13T07:38:29.505Z,1021.58
2017-02-13T07:39:29.485Z,1021.52
2017-02-13T07:40:29.457Z,1021.53
2017-02-13T07:41:29.435Z,1021.53
2017-02-13T07:42:29.412Z,1021.52
2017-02-13T07:43:29.387Z,1021.54
2017-02-13T07:44:29.365Z,1021.56
2017-02-13T07:45:43.630Z,1021.59
2017-02-13T07:46:29.318Z,1021.56
2017-02-13T07:47:29.296Z,1021.62
2017-02-13T07:48:29.273Z,1021.54
2017-02-13T07:49:29.248Z,1021.52
2017-02-13T07:50:29.226Z,1021.57
2017-02-13T07:51:29.214Z,1021.58
2017-02-13T07:52:29.190Z,1021.64
2017-02-13T07:53:29.159Z,1021.63
2017-02-13T07:54:29.137Z,1021.6
2017-02-13T07:55:29.112Z,1021.58
2017-02-13T07:56:29.090Z,1021.63
2017-02-13T07:57:29.064Z,1021.55
2017-02-13T07:58:29.042Z,1021.57
2017-02-13T07:59:29.020Z,1021.57
2017-02-13T08:00:28.996Z,1021.58
2017-02-13T08:01:28.974Z,1021.62
2017-02-13T08:02:28.951Z,1021.6
2017-02-13T08:03:28.927Z,1021.64
2017-02-13T08:04:28.905Z,1021.67
2017-02-13T08:05:28.884Z,1021.66
2017-02-13T08:06:28.860Z,1021.67
2017-02-13T08:07:28.837Z,1021.64
2017-02-13T08:08:28.824Z,1021.63
2017-02-13T08:09:28.792Z,1021.65
2017-02-13T08:10:28.769Z,1021.64
2017-02-13T08:11:28.746Z,1021.66
2017-02-13T08:12:28.722Z,1021.66
2017-02-13T08:13:28.702Z,1021.71
2017-02-13T08:14:28.678Z,1021.72
2017-02-13T08:15:28.656Z,1021.71
2017-02-13T08:16:28.633Z,1021.74
2017-02-13T08:17:28.611Z,1021.74
2017-02-13T08:18:28.589Z,1021.71
2017-02-13T08:19:28.567Z,1021.74
2017-02-13T08:20:28.546Z,1021.75
2017-02-13T08:21:28.525Z,1021.74
2017-02-13T08:22:28.498Z,1021.73
2017-02-13T08:23:28.476Z,1021.72
2017-02-13T08:24:28.456Z,1021.74
2017-02-13T08:25:28.636Z,1021.75
2017-02-13T08:26:28.411Z,1021.78
2017-02-13T08:27:28.388Z,1021.75
2017-02-13T08:28:28.365Z,1021.77
2017-02-13T08:29:28.346Z,1021.76
2017-02-13T08:30:28.322Z,1021.78
2017-02-13T08:31:28.303Z,1021.76
2017-02-13T08:32:28.279Z,1021.81
2017-02-13T08:33:28.257Z,1021.72
2017-02-13T08:34:28.233Z,1021.76
2017-02-13T08:35:28.213Z,1021.75
2017-02-13T08:36:28.190Z,1021.76
2017-02-13T08:37:28.169Z,1021.77
2017-02-13T08:38:28.146Z,1021.67
2017-02-13T08:39:28.128Z,1021.72
2017-02-13T08:40:28.103Z,1021.68
2017-02-13T08:41:28.080Z,1021.72
2017-02-13T08:42:28.059Z,1021.69
2017-02-13T08:43:28.043Z,1021.65
2017-02-13T08:44:28.017Z,1021.66
2017-02-13T08:45:27.999Z,1021.66
2017-02-13T08:46:27.977Z,1021.66
2017-02-13T08:47:27.954Z,1021.67
2017-02-13T08:48:27.933Z,1021.65
2017-02-13T08:49:27.916Z,1021.64
2017-02-13T08:50:27.894Z,1021.67
2017-02-13T08:51:27.875Z,1021.72
2017-02-13T08:52:27.852Z,1021.71
2017-02-13T08:53:27.833Z,1021.7
2017-02-13T08:54:27.824Z,1021.62
2017-02-13T08:55:27.791Z,1021.64
2017-02-13T08:56:27.773Z,1021.66
2017-02-13T08:57:27.753Z,1021.63
2017-02-13T08:58:27.734Z,1021.64
2017-02-13T08:59:27.714Z,1021.69
2017-02-13T09:00:27.696Z,1021.72
2017-02-13T09:01:27.681Z,1021.73
2017-02-13T09:02:27.657Z,1021.72
2017-02-13T09:03:27.642Z,1021.7
2017-02-13T09:04:27.621Z,1021.71
2017-02-13T09:05:27.605Z,1021.76
2017-02-13T09:06:27.583Z,1021.78
2017-02-13T09:07:27.567Z,1021.8
2017-02-13T09:08:27.547Z,1021.75
2017-02-13T09:09:27.531Z,1021.69
2017-02-13T09:10:27.511Z,1021.69
2017-02-13T09:11:27.497Z,1021.74
2017-02-13T09:12:27.479Z,1021.7
2017-02-13T09:13:27.463Z,1021.75
2017-02-13T09:14:27.453Z,1021.76
2017-02-13T09:15:27.431Z,1021.78
2017-02-13T09:16:27.416Z,1021.7
2017-02-13T09:17:27.403Z,1021.73
2017-02-13T09:18:27.382Z,1021.75
2017-02-13T09:19:27.367Z,1021.74
2017-02-13T09:20:27.349Z,1021.77
2017-02-13T09:21:27.337Z,1021.75
2017-02-13T09:22:27.318Z,1021.78
2017-02-13T09:23:27.307Z,1021.72
2017-02-13T09:24:27.286Z,1021.77
2017-02-13T09:25:27.270Z,1021.76
2017-02-13T09:26:27.255Z,1021.74
2017-02-13T09:27:27.248Z,1021.7
2017-02-13T09:28:27.228Z,1021.72
2017-02-13T09:29:27.213Z,1021.71
2017-02-13T09:30:27.195Z,1021.72
2017-02-13T09:31:27.180Z,1021.8
2017-02-13T09:32:27.166Z,1021.77
2017-02-13T09:33:27.149Z,1021.75
2017-02-13T09:34:27.137Z,1021.74
2017-02-13T09:35:27.122Z,1021.79
2017-02-13T09:36:27.107Z,1021.81
2017-02-13T09:37:27.095Z,1021.76
2017-02-13T09:38:27.080Z,1021.83
2017-02-13T09:39:27.069Z,1021.81
2017-02-13T09:40:27.049Z,1021.75
2017-02-13T09:41:27.040Z,1021.76
2017-02-13T09:42:27.023Z,1021.87
2017-02-13T09:43:27.006Z,1021.85
2017-02-13T09:44:26.993Z,1021.92
2017-02-13T09:45:26.980Z,1021.81
2017-02-13T09:46:26.963Z,1021.81
2017-02-13T09:47:26.948Z,1021.77
2017-02-13T09:48:26.933Z,1021.77
2017-02-13T09:49:26.919Z,1021.78
2017-02-13T09:50:26.903Z,1021.79
2017-02-13T09:51:26.889Z,1021.82
2017-02-13T09:52:26.875Z,1021.82
2017-02-13T09:53:26.860Z,1021.81
2017-02-13T09:54:26.845Z,1021.91
2017-02-13T09:55:26.832Z,1021.94
2017-02-13T09:56:26.821Z,1021.94
2017-02-13T09:57:26.800Z,1021.91
2017-02-13T09:58:26.787Z,1021.87
2017-02-13T09:59:26.773Z,1021.84
2017-02-13T10:00:26.759Z,1021.88
2017-02-13T10:01:26.748Z,1021.82
2017-02-13T10:02:26.729Z,1021.83
2017-02-13T10:03:26.717Z,1021.88
2017-02-13T10:04:26.701Z,1021.83
2017-02-13T10:05:26.686Z,1021.87
2017-02-13T10:06:26.672Z,1021.84
2017-02-13T10:07:26.659Z,1021.84
2017-02-13T10:08:26.642Z,1021.78
2017-02-13T10:09:26.627Z,1021.74
2017-02-13T10:10:26.615Z,1021.78
2017-02-13T10:11:26.604Z,1021.75
2017-02-13T10:12:26.586Z,1021.76
2017-02-13T10:13:26.571Z,1021.81
2017-02-13T10:14:26.558Z,1021.81
2017-02-13T10:15:26.544Z,1021.69
2017-02-13T10:16:26.531Z,1021.76
2017-02-13T10:17:26.517Z,1021.77
2017-02-13T10:18:26.500Z,1021.74
2017-02-13T10:19:26.485Z,1021.77
2017-02-13T10:20:26.472Z,1021.78
2017-02-13T10:21:26.457Z,1021.81
2017-02-13T10:22:26.443Z,1021.79
2017-02-13T10:23:26.427Z,1021.8
2017-02-13T10:24:26.416Z,1021.8
2017-02-13T10:25:26.603Z,1021.78
2017-02-13T10:26:26.385Z,1021.79
2017-02-13T10:27:26.375Z,1021.79
2017-02-13T10:28:26.363Z,1021.8
2017-02-13T10:29:26.347Z,1021.77
2017-02-13T10:30:26.333Z,1021.83
2017-02-13T10:31:26.320Z,1021.85
2017-02-13T10:32:26.307Z,1021.85
2017-02-13T10:33:26.293Z,1021.84
2017-02-13T10:34:26.285Z,1021.87
2017-02-13T10:35:26.269Z,1021.89
2017-02-13T10:36:26.260Z,1021.96
2017-02-13T10:37:26.249Z,1022
2017-02-13T10:38:26.235Z,1021.87
2017-02-13T10:39:26.223Z,1021.88
2017-02-13T10:40:26.211Z,1021.79
2017-02-13T10:41:26.201Z,1021.78
2017-02-13T10:42:26.189Z,1021.8
2017-02-13T10:43:26.182Z,1021.74
2017-02-13T10:44:26.167Z,1021.72
2017-02-13T10:45:26.181Z,1021.71
2017-02-13T10:46:26.144Z,1021.73
2017-02-13T10:47:26.133Z,1021.69
2017-02-13T10:48:26.121Z,1021.73
2017-02-13T10:49:26.110Z,1021.71
2017-02-13T10:50:26.099Z,1021.72
2017-02-13T10:51:26.089Z,1021.7
2017-02-13T10:52:26.076Z,1021.77
2017-02-13T10:53:26.070Z,1021.66
2017-02-13T10:54:26.053Z,1021.7
2017-02-13T10:55:26.045Z,1021.72
2017-02-13T10:56:26.029Z,1021.72
2017-02-13T10:57:26.018Z,1021.65
2017-02-13T10:58:26.008Z,1021.65
2017-02-13T10:59:25.995Z,1021.68
2017-02-13T11:00:25.981Z,1021.75
2017-02-13T11:01:25.972Z,1021.74
2017-02-13T11:02:25.963Z,1021.72
2017-02-13T11:03:25.949Z,1021.69
2017-02-13T11:04:25.944Z,1021.69
2017-02-13T11:05:25.925Z,1021.65
2017-02-13T11:06:25.913Z,1021.62
2017-02-13T11:07:25.903Z,1021.7
2017-02-13T11:08:25.892Z,1021.69
2017-02-13T11:09:25.881Z,1021.75
2017-02-13T11:10:25.876Z,1021.75
2017-02-13T11:11:25.859Z,1021.7
2017-02-13T11:12:25.850Z,1021.68
2017-02-13T11:13:25.837Z,1021.67
2017-02-13T11:14:25.828Z,1021.7
2017-02-13T11:15:25.817Z,1021.68
2017-02-13T11:16:25.808Z,1021.65
2017-02-13T11:17:25.799Z,1021.62
2017-02-13T11:18:25.786Z,1021.64
2017-02-13T11:19:25.783Z,1021.67
2017-02-13T11:20:25.801Z,1021.66
2017-02-13T11:21:25.764Z,1021.69
2017-02-13T11:22:25.751Z,1021.73
2017-02-13T11:23:25.740Z,1021.75
2017-02-13T11:24:25.733Z,1021.71
2017-02-13T11:25:25.723Z,1021.68
2017-02-13T11:26:25.716Z,1021.7
2017-02-13T11:27:25.704Z,1021.7
2017-02-13T11:28:25.699Z,1021.68
2017-02-13T11:29:25.723Z,1021.62
2017-02-13T11:30:25.680Z,1021.59
2017-02-13T11:31:25.673Z,1021.61
2017-02-13T11:32:25.664Z,1021.58
2017-02-13T11:33:25.655Z,1021.61
2017-02-13T11:34:25.648Z,1021.57
2017-02-13T11:35:25.640Z,1021.55
2017-02-13T11:36:25.632Z,1021.53
2017-02-13T11:37:25.623Z,1021.59
2017-02-13T11:38:25.616Z,1021.57
2017-02-13T11:39:25.606Z,1021.63
2017-02-13T11:40:25.601Z,1021.63
2017-02-13T11:41:25.591Z,1021.55
2017-02-13T11:42:25.587Z,1021.63
2017-02-13T11:43:25.575Z,1021.61
2017-02-13T11:44:25.567Z,1021.57
2017-02-13T11:45:25.561Z,1021.55
2017-02-13T11:46:25.561Z,1021.59
2017-02-13T11:47:25.547Z,1021.63
2017-02-13T11:48:25.539Z,1021.54
2017-02-13T11:49:25.534Z,1021.55
2017-02-13T11:50:25.527Z,1021.6
2017-02-13T11:51:25.521Z,1021.64
2017-02-13T11:52:25.518Z,1021.62
2017-02-13T11:53:25.509Z,1021.55
2017-02-13T11:54:25.501Z,1021.59
2017-02-13T11:55:25.497Z,1021.59
2017-02-13T11:56:25.493Z,1021.57
2017-02-13T11:57:25.486Z,1021.58
2017-02-13T11:58:25.481Z,1021.56
2017-02-13T11:59:25.475Z,1021.53
2017-02-13T12:00:25.471Z,1021.61
2017-02-13T12:01:25.465Z,1021.6
2017-02-13T12:02:25.461Z,1021.61
2017-02-13T12:03:25.453Z,1021.61
2017-02-13T12:04:25.450Z,1021.62
2017-02-13T12:05:25.445Z,1021.64
2017-02-13T12:06:25.437Z,1021.61
2017-02-13T12:07:25.439Z,1021.68